Time;durP1;ratioP1;P1;durP2;ratioP2;P2;SDS_P1;SDS_P2;PMS_P1;PMS_P2;Temp;Humidity;BMP_temperature;BMP_pressure;BME280_temperature;BME280_humidity;BME280_pressure;Samples;Min_cycle;Max_cycle;Signal;HPM_P1;HPM_P2
2024/01/12 00:00:28;;;;;;;81.20;35.07;;;;;;;;;;5020618;28;21092;-87
2024/01/12 00:03:35;;;;;;;77.10;34.53;;;;;;;;;;5009149;28;20906;-87
2024/01/12 00:06:39;;;;;;;84.57;36.90;;;;;;;;;;5020371;28;21172;-87
2024/01/12 00:09:44;;;;;;;91.57;36.47;;;;;;;;;;5008547;28;20544;-87
2024/01/12 00:12:48;;;;;;;77.57;34.57;;;;;;;;;;5019783;28;20544;-87
2024/01/12 00:15:52;;;;;;;78.43;35.70;;;;;;;;;;5008038;28;20623;-87
2024/01/12 00:18:56;;;;;;;76.10;36.23;;;;;;;;;;5019219;28;20922;-87
2024/01/12 00:22:00;;;;;;;80.03;35.87;;;;;;;;;;4997341;28;20555;-87
2024/01/12 00:25:04;;;;;;;83.07;37.07;;;;;;;;;;5019725;28;20651;-87
2024/01/12 00:28:08;;;;;;;82.40;35.43;;;;;;;;;;5019855;28;20564;-87
2024/01/12 00:31:12;;;;;;;76.23;34.43;;;;;;;;;;4996375;28;20547;-87
2024/01/12 00:34:17;;;;;;;84.27;36.13;;;;;;;;;;4996311;28;20650;-87
2024/01/12 00:37:21;;;;;;;85.57;38.17;;;;;;;;;;5007753;28;20540;-87
2024/01/12 00:40:25;;;;;;;80.97;35.57;;;;;;;;;;5020200;28;20547;-87
2024/01/12 00:43:30;;;;;;;74.10;34.47;;;;;;;;;;5006949;28;20552;-87
2024/01/12 00:46:34;;;;;;;79.37;35.87;;;;;;;;;;5024114;28;20596;-87
2024/01/12 00:49:38;;;;;;;82.23;35.53;;;;;;;;;;5026124;28;20569;-87
2024/01/12 00:52:42;;;;;;;76.20;35.57;;;;;;;;;;5019314;28;20624;-87
2024/01/12 00:55:47;;;;;;;79.63;36.23;;;;;;;;;;5019744;28;20631;-87
2024/01/12 00:58:51;;;;;;;72.80;34.63;;;;;;;;;;5019916;28;20555;-87
2024/01/12 01:01:58;;;;;;;78.70;36.70;;;;;;;;;;5019460;28;20547;-87
2024/01/12 01:05:02;;;;;;;81.70;36.40;;;;;;;;;;5007455;28;20627;-87
2024/01/12 01:08:07;;;;;;;84.37;37.63;;;;;;;;;;5008001;28;21101;-87
2024/01/12 01:11:11;;;;;;;76.63;35.83;;;;;;;;;;5020106;28;20926;-87
2024/01/12 01:14:16;;;;;;;73.73;35.90;;;;;;;;;;5019789;28;20631;-87
2024/01/12 01:17:24;;;;;;;78.47;35.17;;;;;;;;;;5007849;28;20544;-87
2024/01/12 01:20:28;;;;;;;77.07;35.10;;;;;;;;;;5019038;28;20548;-87
2024/01/12 01:23:32;;;;;;;78.03;35.57;;;;;;;;;;5007735;28;20544;-87
2024/01/12 01:26:36;;;;;;;76.80;36.23;;;;;;;;;;5019102;28;20603;-87
2024/01/12 01:29:40;;;;;;;83.90;35.63;;;;;;;;;;5018168;28;20560;-87
2024/01/12 01:32:47;;;;;;;78.97;34.73;;;;;;;;;;4996011;28;20613;-87
2024/01/12 01:35:52;;;;;;;78.77;35.43;;;;;;;;;;5018198;28;20643;-87
2024/01/12 01:38:56;;;;;;;79.57;34.77;;;;;;;;;;5007039;28;20568;-87
2024/01/12 01:42:01;;;;;;;77.07;35.97;;;;;;;;;;5018272;28;20556;-87
2024/01/12 01:45:06;;;;;;;80.07;34.50;;;;;;;;;;5018682;28;20627;-87
2024/01/12 01:48:11;;;;;;;77.90;34.73;;;;;;;;;;5007627;28;20528;-87
2024/01/12 01:51:15;;;;;;;83.73;35.60;;;;;;;;;;5018099;28;20548;-87
2024/01/12 01:54:19;;;;;;;73.97;33.57;;;;;;;;;;4995378;28;21194;-87
2024/01/12 01:57:25;;;;;;;71.07;33.87;;;;;;;;;;5017739;28;20567;-87
2024/01/12 02:00:31;;;;;;;75.03;35.27;;;;;;;;;;5017751;28;20552;-87
2024/01/12 02:03:38;;;;;;;73.60;34.80;;;;;;;;;;5006923;28;20548;-87
2024/01/12 02:06:43;;;;;;;75.53;34.30;;;;;;;;;;5007046;28;20656;-87
2024/01/12 02:09:47;;;;;;;84.17;36.13;;;;;;;;;;5017361;28;20545;-87
2024/01/12 02:12:51;;;;;;;77.23;34.40;;;;;;;;;;5017506;28;20556;-87
2024/01/12 02:15:55;;;;;;;77.43;34.53;;;;;;;;;;4994722;28;20615;-87
2024/01/12 02:18:59;;;;;;;75.53;34.00;;;;;;;;;;5017653;28;20902;-87
2024/01/12 02:22:05;;;;;;;74.67;33.23;;;;;;;;;;5016931;28;20563;-87
2024/01/12 02:25:10;;;;;;;74.50;33.47;;;;;;;;;;5005238;28;20623;-87
2024/01/12 02:28:14;;;;;;;77.43;34.93;;;;;;;;;;5016979;28;20540;-87
2024/01/12 02:31:18;;;;;;;74.20;33.27;;;;;;;;;;5016542;28;20548;-87
2024/01/12 02:34:22;;;;;;;84.10;35.67;;;;;;;;;;5004719;28;20642;-87
2024/01/12 02:37:26;;;;;;;72.77;32.80;;;;;;;;;;5016381;28;20564;-87
2024/01/12 02:40:30;;;;;;;73.67;33.80;;;;;;;;;;5005009;28;20544;-86
2024/01/12 02:43:34;;;;;;;77.33;34.77;;;;;;;;;;5027293;28;20551;-87
2024/01/12 02:46:39;;;;;;;70.90;32.47;;;;;;;;;;5015953;28;20612;-87
2024/01/12 02:49:43;;;;;;;67.40;32.13;;;;;;;;;;5016472;28;20560;-87
2024/01/12 02:52:47;;;;;;;73.17;32.93;;;;;;;;;;5004624;28;20548;-87
2024/01/12 02:55:51;;;;;;;65.80;31.63;;;;;;;;;;4993175;28;20615;-87
2024/01/12 02:58:55;;;;;;;70.40;31.67;;;;;;;;;;5017065;28;21092;-87
2024/01/12 03:01:59;;;;;;;73.30;33.17;;;;;;;;;;4993363;28;21128;-87
2024/01/12 03:05:04;;;;;;;67.03;32.13;;;;;;;;;;5015841;28;20631;-87
2024/01/12 03:08:09;;;;;;;71.83;30.97;;;;;;;;;;5015801;28;20545;-87
2024/01/12 03:11:13;;;;;;;67.93;31.80;;;;;;;;;;5004337;28;20556;-87
2024/01/12 03:14:17;;;;;;;73.10;32.93;;;;;;;;;;5003792;28;20627;-87
2024/01/12 03:17:21;;;;;;;76.57;31.83;;;;;;;;;;5004070;28;20560;-87
2024/01/12 03:20:25;;;;;;;64.37;31.10;;;;;;;;;;4992986;28;20563;-87
2024/01/12 03:23:30;;;;;;;76.40;33.73;;;;;;;;;;5016055;28;21099;-87
2024/01/12 03:26:36;;;;;;;70.50;31.93;;;;;;;;;;4992733;28;20676;-87
2024/01/12 03:29:40;;;;;;;75.00;32.00;;;;;;;;;;5002823;28;20548;-87
2024/01/12 03:32:45;;;;;;;66.80;30.93;;;;;;;;;;5015666;28;20548;-87
2024/01/12 03:35:49;;;;;;;72.60;31.90;;;;;;;;;;5014459;28;20654;-87
2024/01/12 03:38:54;;;;;;;72.07;30.97;;;;;;;;;;5003413;28;20544;-87
2024/01/12 03:41:58;;;;;;;68.47;30.70;;;;;;;;;;5015607;28;20544;-87
2024/01/12 03:45:03;;;;;;;76.67;32.53;;;;;;;;;;5026281;28;20968;-87
2024/01/12 03:48:08;;;;;;;70.90;32.17;;;;;;;;;;5014970;28;20600;-87
2024/01/12 03:51:12;;;;;;;67.63;30.20;;;;;;;;;;5003583;28;20544;-87
2024/01/12 03:54:16;;;;;;;74.83;30.80;;;;;;;;;;5014601;28;20627;-87
2024/01/12 03:57:20;;;;;;;75.00;32.23;;;;;;;;;;5004314;28;20544;-87
2024/01/12 04:00:24;;;;;;;63.33;28.33;;;;;;;;;;5016567;28;20547;-86
2024/01/12 04:03:28;;;;;;;71.03;31.37;;;;;;;;;;4996969;28;20544;-85
2024/01/12 04:06:32;;;;;;;71.33;30.23;;;;;;;;;;5018777;28;20599;-85
2024/01/12 04:09:37;;;;;;;73.73;31.17;;;;;;;;;;5028607;28;20559;-84
2024/01/12 04:12:41;;;;;;;72.90;30.97;;;;;;;;;;5017749;28;21116;-84
2024/01/12 04:15:45;;;;;;;72.07;31.20;;;;;;;;;;5004497;28;20639;-84
2024/01/12 04:18:49;;;;;;;69.30;29.37;;;;;;;;;;5013799;28;20559;-84
2024/01/12 04:21:54;;;;;;;67.27;29.07;;;;;;;;;;5014768;28;20551;-84
2024/01/12 04:24:59;;;;;;;62.73;29.77;;;;;;;;;;5014770;28;21207;-84
2024/01/12 04:28:03;;;;;;;61.20;28.73;;;;;;;;;;5015199;28;20599;-83
2024/01/12 04:31:09;;;;;;;68.73;30.53;;;;;;;;;;5014951;28;21105;-84
2024/01/12 04:34:14;;;;;;;70.03;30.03;;;;;;;;;;5014157;28;20638;-84
2024/01/12 04:37:18;;;;;;;59.47;29.23;;;;;;;;;;5014498;28;20540;-84
2024/01/12 04:40:22;;;;;;;69.43;29.23;;;;;;;;;;5014534;28;20616;-84
2024/01/12 04:43:27;;;;;;;69.50;30.53;;;;;;;;;;5018757;28;20555;-84
2024/01/12 04:46:31;;;;;;;76.07;31.27;;;;;;;;;;4996205;28;20547;-84
2024/01/12 04:49:37;;;;;;;70.57;30.07;;;;;;;;;;5018688;28;20544;-84
2024/01/12 04:52:41;;;;;;;62.47;28.13;;;;;;;;;;5018185;28;20548;-84
2024/01/12 04:55:45;;;;;;;74.27;29.90;;;;;;;;;;5017875;28;20634;-84
2024/01/12 04:58:50;;;;;;;73.43;31.23;;;;;;;;;;5018289;28;20549;-84
2024/01/12 05:01:54;;;;;;;68.20;28.93;;;;;;;;;;5006262;28;20543;-83
2024/01/12 05:04:58;;;;;;;67.37;29.73;;;;;;;;;;5018206;28;20635;-84
2024/01/12 05:08:02;;;;;;;63.73;29.40;;;;;;;;;;5019468;28;20599;-84
2024/01/12 05:11:06;;;;;;;71.93;30.37;;;;;;;;;;5022317;28;20548;-83
2024/01/12 05:14:11;;;;;;;76.47;31.57;;;;;;;;;;5021209;28;20630;-84
2024/01/12 05:17:15;;;;;;;69.30;29.87;;;;;;;;;;5006174;28;20544;-84
2024/01/12 05:20:21;;;;;;;68.50;30.80;;;;;;;;;;5017361;28;20540;-83
2024/01/12 05:23:25;;;;;;;74.93;30.43;;;;;;;;;;5018530;28;20548;-84
2024/01/12 05:26:30;;;;;;;70.73;29.90;;;;;;;;;;5006192;28;20552;-83
2024/01/12 05:29:35;;;;;;;76.30;32.57;;;;;;;;;;5018852;28;20564;-84
2024/01/12 05:32:39;;;;;;;63.03;28.20;;;;;;;;;;5020042;28;20544;-83
2024/01/12 05:35:44;;;;;;;76.63;30.43;;;;;;;;;;5019991;28;20647;-84
2024/01/12 05:38:48;;;;;;;71.63;29.83;;;;;;;;;;5016681;28;20540;-84
2024/01/12 05:41:52;;;;;;;71.70;30.47;;;;;;;;;;5016782;28;20548;-83
2024/01/12 05:44:56;;;;;;;61.57;28.57;;;;;;;;;;4995064;28;20984;-83
2024/01/12 05:48:00;;;;;;;58.60;27.93;;;;;;;;;;5005894;28;20600;-83
2024/01/12 05:51:05;;;;;;;78.97;31.90;;;;;;;;;;5018606;28;20910;-84
2024/01/12 05:54:09;;;;;;;75.45;29.77;;;;;;;;;;5006097;28;20647;-84
2024/01/12 05:57:13;;;;;;;62.70;28.57;;;;;;;;;;4994812;28;20192;-84
2024/01/12 06:00:17;;;;;;;66.97;29.23;;;;;;;;;;5017413;28;20548;-84
2024/01/12 06:03:21;;;;;;;71.43;28.57;;;;;;;;;;5006407;28;20556;-84
2024/01/12 06:06:26;;;;;;;75.70;31.55;;;;;;;;;;5017223;28;20930;-84
2024/01/12 06:09:30;;;;;;;60.53;28.35;;;;;;;;;;5017331;28;20189;-84
2024/01/12 06:12:34;;;;;;;73.63;29.27;;;;;;;;;;5018867;28;20554;-83
2024/01/12 06:15:38;;;;;;;71.00;29.27;;;;;;;;;;5017145;28;20232;-84
2024/01/12 06:18:43;;;;;;;66.20;30.30;;;;;;;;;;5018085;28;20540;-84
2024/01/12 06:21:47;;;;;;;69.53;29.73;;;;;;;;;;5016666;28;20662;-83
2024/01/12 06:24:52;;;;;;;80.32;30.85;;;;;;;;;;5005555;28;20228;-83
2024/01/12 06:27:57;;;;;;;72.25;30.90;;;;;;;;;;5005285;28;20230;-84
2024/01/12 06:31:01;;;;;;;67.88;30.30;;;;;;;;;;5004764;28;20197;-84
2024/01/12 06:34:05;;;;;;;71.13;30.25;;;;;;;;;;5016137;28;20232;-83
2024/01/12 06:37:10;;;;;;;69.63;29.35;;;;;;;;;;5016307;28;20196;-84
2024/01/12 06:40:14;;;;;;;64.40;27.50;;;;;;;;;;5016325;28;20192;-84
2024/01/12 06:43:18;;;;;;;73.32;29.90;;;;;;;;;;5016498;28;20193;-84
2024/01/12 06:46:22;;;;;;;51.45;22.58;;;;;;;;;;5028995;28;20188;-81
2024/01/12 06:49:26;;;;;;;86.18;33.00;;;;;;;;;;5005308;28;20236;-81
2024/01/12 06:52:31;;;;;;;79.07;32.80;;;;;;;;;;4997315;28;20197;-81
2024/01/12 06:55:36;;;;;;;72.10;31.40;;;;;;;;;;4997885;28;20632;-85
2024/01/12 06:58:40;;;;;;;66.60;29.43;;;;;;;;;;4963810;28;20915;-85
2024/01/12 07:01:44;;;;;;;71.53;30.67;;;;;;;;;;4974335;28;20565;-84
2024/01/12 07:04:48;;;;;;;75.03;30.47;;;;;;;;;;4974505;28;20628;-85
2024/01/12 07:07:52;;;;;;;64.23;28.83;;;;;;;;;;4977536;28;20604;-86
2024/01/12 07:10:56;;;;;;;71.40;30.57;;;;;;;;;;4995528;28;20928;-86
2024/01/12 07:14:01;;;;;;;69.93;29.97;;;;;;;;;;4995627;28;21262;-85
2024/01/12 07:17:05;;;;;;;63.90;29.57;;;;;;;;;;5001386;28;20560;-84
2024/01/12 07:20:10;;;;;;;68.20;29.50;;;;;;;;;;4988986;28;20572;-85
2024/01/12 07:23:16;;;;;;;70.43;29.30;;;;;;;;;;4987655;28;20193;-84
2024/01/12 07:26:24;;;;;;;68.50;30.00;;;;;;;;;;4974813;28;20927;-84
2024/01/12 07:29:31;;;;;;;65.63;28.08;;;;;;;;;;4984758;28;21121;-84
2024/01/12 07:32:35;;;;;;;67.35;29.95;;;;;;;;;;4969763;28;20678;-85
2024/01/12 07:35:59;;;;;;;62.03;29.77;;;;;;;;;;4986422;28;20233;-85
2024/01/12 07:39:10;;;;;;;66.87;28.13;;;;;;;;;;4984807;28;20557;-84
2024/01/12 07:42:16;;;;;;;64.93;29.20;;;;;;;;;;4995350;28;21129;-84
2024/01/12 07:45:22;;;;;;;61.20;28.80;;;;;;;;;;4989258;28;20239;-84
2024/01/12 07:48:30;;;;;;;69.13;28.73;;;;;;;;;;5015558;28;20616;-84
2024/01/12 07:51:40;;;;;;;62.95;28.38;;;;;;;;;;5005363;28;20564;-84
2024/01/12 07:55:02;;;;;;;64.57;28.90;;;;;;;;;;4999763;28;20232;-84
2024/01/12 07:58:07;;;;;;;64.03;29.40;;;;;;;;;;5003388;28;20548;-84
2024/01/12 08:01:16;;;;;;;75.63;31.77;;;;;;;;;;4992526;28;20571;-84
2024/01/12 08:04:40;;;;;;;68.93;30.87;;;;;;;;;;5005703;28;20623;-83
2024/01/12 08:07:44;;;;;;;69.33;31.07;;;;;;;;;;4991620;28;20603;-83
2024/01/12 08:10:49;;;;;;;78.77;32.50;;;;;;;;;;5002751;28;20564;-84
2024/01/12 08:14:11;;;;;;;69.37;29.53;;;;;;;;;;5014822;28;20627;-84
2024/01/12 08:17:15;;;;;;;76.60;32.47;;;;;;;;;;5005908;28;20621;-83
2024/01/12 08:20:20;;;;;;;74.70;31.57;;;;;;;;;;4995400;28;20548;-84
2024/01/12 08:23:24;;;;;;;65.23;28.90;;;;;;;;;;5006317;28;20544;-83
2024/01/12 08:26:46;;;;;;;70.23;31.10;;;;;;;;;;5017872;28;20544;-83
2024/01/12 08:29:51;;;;;;;67.77;30.97;;;;;;;;;;5019314;28;20536;-84
2024/01/12 08:32:55;;;;;;;70.70;32.43;;;;;;;;;;5006923;28;20560;-83
2024/01/12 08:35:59;;;;;;;66.00;30.53;;;;;;;;;;5017391;28;21004;-83
2024/01/12 08:39:04;;;;;;;65.53;28.30;;;;;;;;;;5006058;28;20556;-83
2024/01/12 08:42:09;;;;;;;62.73;29.27;;;;;;;;;;4995144;28;20544;-85
2024/01/12 08:45:13;;;;;;;62.13;28.67;;;;;;;;;;5006102;28;20630;-84
2024/01/12 08:48:19;;;;;;;61.67;30.27;;;;;;;;;;5017846;28;20619;-84
2024/01/12 08:51:23;;;;;;;74.47;30.30;;;;;;;;;;5006559;28;20918;-84
2024/01/12 08:54:27;;;;;;;71.40;32.60;;;;;;;;;;4994499;28;20627;-83
2024/01/12 08:57:32;;;;;;;65.27;29.07;;;;;;;;;;5006003;28;20540;-85
2024/01/12 09:00:36;;;;;;;66.43;30.37;;;;;;;;;;4994412;28;20960;-84
2024/01/12 09:03:40;;;;;;;65.70;28.83;;;;;;;;;;4994317;28;20551;-83
2024/01/12 09:06:44;;;;;;;68.30;28.97;;;;;;;;;;5005825;28;20563;-84
2024/01/12 09:09:48;;;;;;;68.97;29.20;;;;;;;;;;5005687;28;20620;-84
2024/01/12 09:12:52;;;;;;;58.33;29.30;;;;;;;;;;4994323;28;20898;-84
2024/01/12 09:15:56;;;;;;;65.23;30.37;;;;;;;;;;5005253;28;20623;-84
2024/01/12 09:19:01;;;;;;;63.83;31.03;;;;;;;;;;4994164;28;21123;-85
2024/01/12 09:22:05;;;;;;;62.10;29.23;;;;;;;;;;5005614;28;20543;-84
2024/01/12 09:25:09;;;;;;;61.87;31.80;;;;;;;;;;5005148;28;20639;-84
2024/01/12 09:28:13;;;;;;;68.63;32.83;;;;;;;;;;5005317;28;20595;-83
2024/01/12 09:31:17;;;;;;;64.73;30.57;;;;;;;;;;4994102;28;20544;-83
2024/01/12 09:34:21;;;;;;;67.20;30.70;;;;;;;;;;5004541;28;20647;-84
2024/01/12 09:37:25;;;;;;;97.37;41.00;;;;;;;;;;5003554;28;20548;-83
2024/01/12 09:40:30;;;;;;;62.60;29.60;;;;;;;;;;5004292;28;20540;-83
2024/01/12 09:43:35;;;;;;;69.17;30.03;;;;;;;;;;5004114;28;20547;-83
2024/01/12 09:46:47;;;;;;;68.63;31.60;;;;;;;;;;5004467;28;20544;-83
2024/01/12 09:49:53;;;;;;;65.63;31.03;;;;;;;;;;5003889;28;20615;-83
2024/01/12 09:52:57;;;;;;;69.00;30.10;;;;;;;;;;5016015;28;20552;-83
2024/01/12 09:56:02;;;;;;;77.57;33.20;;;;;;;;;;4992219;28;20619;-83
2024/01/12 09:59:06;;;;;;;62.83;29.63;;;;;;;;;;5015643;28;20548;-83
2024/01/12 10:02:15;;;;;;;64.03;30.67;;;;;;;;;;4992590;28;21108;-83
2024/01/12 10:05:19;;;;;;;65.27;30.53;;;;;;;;;;5015423;28;20989;-87
2024/01/12 10:08:34;;;;;;;71.47;31.77;;;;;;;;;;5003167;28;20595;-87
2024/01/12 10:11:39;;;;;;;67.33;30.23;;;;;;;;;;5002927;28;20545;-87
2024/01/12 10:14:42;;;;;;;68.93;30.47;;;;;;;;;;5002503;28;20618;-87
2024/01/12 10:17:50;;;;;;;71.13;31.70;;;;;;;;;;5008857;28;21092;-87
2024/01/12 10:20:55;;;;;;;66.43;30.37;;;;;;;;;;5022148;28;20564;-87
2024/01/12 10:24:05;;;;;;;60.87;29.07;;;;;;;;;;4981999;28;20623;-88
2024/01/12 10:27:13;;;;;;;57.40;28.50;;;;;;;;;;5015558;28;20556;-87
2024/01/12 10:30:17;;;;;;;62.33;30.73;;;;;;;;;;5003728;28;20595;-87
2024/01/12 10:33:22;;;;;;;66.70;28.40;;;;;;;;;;5002999;28;21100;-87
2024/01/12 10:36:21;;;;;;;86.07;39.57;;;;;;;;;;5092779;27;20746;-87
2024/01/12 10:39:29;;;;;;;68.00;32.17;;;;;;;;;;5079960;28;20534;-87
2024/01/12 10:42:35;;;;;;;68.10;30.87;;;;;;;;;;5092775;28;20561;-84
2024/01/12 10:45:48;;;;;;;71.33;32.83;;;;;;;;;;5068159;28;20616;-86
2024/01/12 10:49:22;;;;;;;60.93;30.57;;;;;;;;;;5068092;28;20537;-86
2024/01/12 10:52:51;;;;;;;56.83;27.03;;;;;;;;;;5079648;28;20529;-86
2024/01/12 10:55:58;;;;;;;59.13;29.40;;;;;;;;;;5068229;28;20640;-86
2024/01/12 10:59:04;;;;;;;61.03;30.17;;;;;;;;;;5079607;28;20554;-86
2024/01/12 11:02:13;;;;;;;62.00;30.50;;;;;;;;;;5068402;28;21074;-86
2024/01/12 11:05:20;;;;;;;67.33;31.13;;;;;;;;;;5068367;28;21209;-86
2024/01/12 11:08:28;;;;;;;66.70;30.80;;;;;;;;;;5079915;28;20546;-87
2024/01/12 11:11:41;;;;;;;67.07;30.40;;;;;;;;;;5067756;28;20553;-87
2024/01/12 11:14:46;;;;;;;64.70;30.60;;;;;;;;;;5057021;28;20640;-86
2024/01/12 11:17:50;;;;;;;64.27;29.73;;;;;;;;;;5080363;28;20534;-86
2024/01/12 11:21:04;;;;;;;61.77;30.17;;;;;;;;;;5057192;28;20548;-86
2024/01/12 11:24:12;;;;;;;66.53;32.07;;;;;;;;;;5078987;28;20613;-86
2024/01/12 11:27:15;;;;;;;59.97;30.67;;;;;;;;;;5079970;28;20873;-87
2024/01/12 11:30:21;;;;;;;65.83;29.90;;;;;;;;;;5067675;28;20541;-87
2024/01/12 11:33:25;;;;;;;65.07;31.17;;;;;;;;;;5056395;28;20542;-88
2024/01/12 11:36:30;;;;;;;67.60;31.17;;;;;;;;;;5067934;28;20900;-87
2024/01/12 11:39:37;;;;;;;61.53;29.10;;;;;;;;;;5067662;28;20541;-87
2024/01/12 11:42:44;;;;;;;66.40;31.40;;;;;;;;;;5056148;28;20895;-87
2024/01/12 11:45:52;;;;;;;59.73;28.43;;;;;;;;;;5066083;28;20601;-87
2024/01/12 11:48:56;;;;;;;66.47;29.93;;;;;;;;;;5053913;28;20538;-87
2024/01/12 11:52:04;;;;;;;67.13;32.53;;;;;;;;;;5054285;28;20903;-87
2024/01/12 11:55:09;;;;;;;63.27;31.03;;;;;;;;;;5064937;28;20642;-87
2024/01/12 11:58:13;;;;;;;64.87;30.90;;;;;;;;;;5056002;28;20531;-86
2024/01/12 12:01:19;;;;;;;69.13;31.23;;;;;;;;;;5053711;28;20541;-87
2024/01/12 12:04:23;;;;;;;70.20;31.70;;;;;;;;;;5043212;28;21012;-86
2024/01/12 12:07:27;;;;;;;66.73;31.63;;;;;;;;;;4974783;28;20561;-87
2024/01/12 12:10:31;;;;;;;65.37;29.97;;;;;;;;;;4997092;28;21152;-86
2024/01/12 12:13:36;;;;;;;65.50;30.10;;;;;;;;;;4975092;28;20546;-87
2024/01/12 12:16:40;;;;;;;62.00;29.37;;;;;;;;;;4998140;28;20589;-86
2024/01/12 12:19:44;;;;;;;65.93;29.93;;;;;;;;;;4997440;28;20538;-87
2024/01/12 12:22:49;;;;;;;61.33;29.80;;;;;;;;;;4997966;28;20533;-87
2024/01/12 12:25:54;;;;;;;62.00;30.27;;;;;;;;;;4996829;28;20601;-86
2024/01/12 12:28:58;;;;;;;69.73;30.17;;;;;;;;;;4986596;28;21074;-86
2024/01/12 12:32:02;;;;;;;64.80;29.67;;;;;;;;;;4997255;28;20557;-87
2024/01/12 12:35:14;;;;;;;67.30;27.80;;;;;;;;;;4985789;28;20998;-87
2024/01/12 12:38:21;;;;;;;56.93;27.00;;;;;;;;;;4985613;28;20549;-86
2024/01/12 12:41:25;;;;;;;58.10;28.60;;;;;;;;;;4985654;28;20542;-86
2024/01/12 12:44:32;;;;;;;65.40;29.63;;;;;;;;;;4998122;28;20625;-86
2024/01/12 12:47:37;;;;;;;77.50;28.67;;;;;;;;;;4997550;28;20898;-86
2024/01/12 12:50:41;;;;;;;278.23;37.90;;;;;;;;;;4997040;28;20542;-86
2024/01/12 12:53:45;;;;;;;147.67;31.53;;;;;;;;;;4986105;28;20549;-84
2024/01/12 12:56:50;;;;;;;71.00;29.70;;;;;;;;;;4995964;28;20613;-83
2024/01/12 12:59:54;;;;;;;95.90;29.67;;;;;;;;;;4996247;28;20558;-86
2024/01/12 13:02:59;;;;;;;77.20;30.70;;;;;;;;;;4996631;28;20573;-85
2024/01/12 13:06:03;;;;;;;71.03;30.20;;;;;;;;;;4996393;28;20609;-85
2024/01/12 13:09:07;;;;;;;97.93;30.13;;;;;;;;;;4997198;28;20928;-85
2024/01/12 13:12:12;;;;;;;61.17;27.60;;;;;;;;;;4995985;28;20557;-86
2024/01/12 13:15:16;;;;;;;244.97;39.53;;;;;;;;;;4984653;28;20660;-85
2024/01/12 13:18:21;;;;;;;378.83;58.27;;;;;;;;;;4996269;28;20549;-85
2024/01/12 13:21:25;;;;;;;1999.90;446.53;;;;;;;;;;4997366;28;20557;-85
2024/01/12 13:24:30;;;;;;;592.67;86.93;;;;;;;;;;4997405;28;20632;-85
2024/01/12 13:27:34;;;;;;;1999.90;798.80;;;;;;;;;;4996448;28;20983;-85
2024/01/12 13:30:39;;;;;;;348.43;55.63;;;;;;;;;;4997768;28;20553;-85
2024/01/12 13:33:43;;;;;;;1999.90;279.80;;;;;;;;;;5005692;28;20549;-85
2024/01/12 13:36:48;;;;;;;1928.70;243.07;;;;;;;;;;5007555;28;20633;-86
2024/01/12 13:39:52;;;;;;;1999.90;397.67;;;;;;;;;;4978554;28;20557;-86
2024/01/12 13:42:56;;;;;;;290.37;50.00;;;;;;;;;;4989105;28;20553;-85
2024/01/12 13:46:03;;;;;;;1271.00;159.33;;;;;;;;;;4999257;28;20624;-86
2024/01/12 13:49:08;;;;;;;1716.63;212.83;;;;;;;;;;4987663;28;20553;-85
2024/01/12 13:52:13;;;;;;;925.83;106.90;;;;;;;;;;4998894;28;20553;-85
2024/01/12 13:55:17;;;;;;;967.40;114.23;;;;;;;;;;4986642;28;20647;-85
2024/01/12 13:58:24;;;;;;;179.77;36.47;;;;;;;;;;4997592;28;20569;-85
2024/01/12 14:01:28;;;;;;;70.87;28.70;;;;;;;;;;4996909;28;20549;-86
2024/01/12 14:04:32;;;;;;;67.90;26.27;;;;;;;;;;4996801;28;20629;-85
2024/01/12 14:07:37;;;;;;;48.33;25.00;;;;;;;;;;4996461;28;20539;-85
2024/01/12 14:10:42;;;;;;;50.77;26.13;;;;;;;;;;4997933;28;20555;-85
2024/01/12 14:13:47;;;;;;;52.90;24.73;;;;;;;;;;4996681;28;20562;-85
2024/01/12 14:16:52;;;;;;;55.77;27.27;;;;;;;;;;4996791;28;20604;-86
2024/01/12 14:19:56;;;;;;;46.90;24.53;;;;;;;;;;4995803;28;20570;-85
2024/01/12 14:23:00;;;;;;;51.70;27.37;;;;;;;;;;4994826;28;20551;-87
2024/01/12 14:26:05;;;;;;;45.97;23.67;;;;;;;;;;4973147;28;20608;-87
2024/01/12 14:29:09;;;;;;;53.17;25.30;;;;;;;;;;4983006;28;21088;-86
2024/01/12 14:32:14;;;;;;;51.90;26.13;;;;;;;;;;4994937;28;20561;-87
2024/01/12 14:35:18;;;;;;;47.20;24.20;;;;;;;;;;4982790;28;20661;-87
2024/01/12 14:38:22;;;;;;;49.03;24.73;;;;;;;;;;4994557;28;20550;-87
2024/01/12 14:41:26;;;;;;;48.73;24.70;;;;;;;;;;4994672;28;20547;-87
2024/01/12 14:44:31;;;;;;;46.40;23.50;;;;;;;;;;4994170;28;20624;-87
2024/01/12 14:47:36;;;;;;;48.30;23.23;;;;;;;;;;4984437;28;20557;-86
2024/01/12 14:50:41;;;;;;;47.23;24.97;;;;;;;;;;5001237;28;20570;-87
2024/01/12 14:53:47;;;;;;;53.23;26.20;;;;;;;;;;4988005;28;20545;-87
2024/01/12 14:56:51;;;;;;;51.33;25.90;;;;;;;;;;4999472;28;20616;-87
2024/01/12 14:59:56;;;;;;;247.60;36.70;;;;;;;;;;5002633;28;20562;-87
2024/01/12 15:03:00;;;;;;;187.20;35.70;;;;;;;;;;5018240;28;20557;-88
2024/01/12 15:06:05;;;;;;;66.35;30.73;;;;;;;;;;4982037;28;20744;-86
2024/01/12 15:09:34;;;;;;;48.80;26.03;;;;;;;;;;4999709;28;20195;-87
2024/01/12 15:12:39;;;;;;;49.73;25.17;;;;;;;;;;5000409;28;20552;-87
2024/01/12 15:15:46;;;;;;;50.20;24.33;;;;;;;;;;5001327;28;20660;-88
2024/01/12 15:18:51;;;;;;;47.83;24.20;;;;;;;;;;5000119;28;20545;-88
2024/01/12 15:21:55;;;;;;;56.43;27.60;;;;;;;;;;5000517;28;20558;-90
2024/01/12 15:24:59;;;;;;;51.10;24.70;;;;;;;;;;5001288;28;20632;-88
2024/01/12 15:28:04;;;;;;;49.30;23.97;;;;;;;;;;4979139;28;20552;-88
2024/01/12 15:31:08;;;;;;;48.33;23.13;;;;;;;;;;4990468;28;20548;-88
2024/01/12 15:34:15;;;;;;;48.77;24.57;;;;;;;;;;5001916;28;20636;-88
2024/01/12 15:37:20;;;;;;;44.73;23.57;;;;;;;;;;4993188;28;20588;-88
2024/01/12 15:40:24;;;;;;;47.97;23.17;;;;;;;;;;4982474;28;20554;-88
2024/01/12 15:43:28;;;;;;;49.30;23.37;;;;;;;;;;4996721;28;20556;-88
2024/01/12 15:46:38;;;;;;;49.30;23.47;;;;;;;;;;5006496;28;20618;-88
2024/01/12 15:49:43;;;;;;;50.87;23.07;;;;;;;;;;4994883;28;20575;-88
2024/01/12 15:52:47;;;;;;;58.87;27.30;;;;;;;;;;4984719;28;20550;-89
2024/01/12 15:55:52;;;;;;;56.00;25.70;;;;;;;;;;5007257;28;20672;-89
2024/01/12 15:58:57;;;;;;;60.30;28.97;;;;;;;;;;4996124;28;20552;-89
2024/01/12 16:02:01;;;;;;;70.47;33.33;;;;;;;;;;4984071;28;20549;-89
2024/01/12 16:05:06;;;;;;;59.33;27.23;;;;;;;;;;4984024;28;20634;-90
2024/01/12 16:08:10;;;;;;;56.40;26.20;;;;;;;;;;4983907;28;20542;-90
2024/01/12 16:11:22;;;;;;;61.50;28.50;;;;;;;;;;4994547;28;20544;-90
2024/01/12 16:14:27;;;;;;;60.97;27.57;;;;;;;;;;4994277;28;20639;-90
2024/01/12 16:17:33;;;;;;;64.90;26.67;;;;;;;;;;4982977;28;20596;-90
2024/01/12 16:20:37;;;;;;;59.13;27.53;;;;;;;;;;4994123;28;20904;-90
2024/01/12 16:23:41;;;;;;;60.60;26.97;;;;;;;;;;4993726;28;20542;-90
2024/01/12 16:26:45;;;;;;;60.67;27.37;;;;;;;;;;4993388;28;21107;-90
2024/01/12 16:29:51;;;;;;;57.50;26.10;;;;;;;;;;5004489;28;20547;-90
2024/01/12 16:32:56;;;;;;;68.27;31.53;;;;;;;;;;4993186;28;20640;-90
2024/01/12 16:36:00;;;;;;;52.00;26.23;;;;;;;;;;5003462;28;20676;-90
2024/01/12 16:39:04;;;;;;;53.87;25.63;;;;;;;;;;5003863;28;20559;-89
2024/01/12 16:42:12;;;;;;;64.17;26.20;;;;;;;;;;4985739;28;20518;-89
2024/01/12 16:45:16;;;;;;;55.77;25.17;;;;;;;;;;4994636;28;20625;-89
2024/01/12 16:48:20;;;;;;;57.90;27.00;;;;;;;;;;5004887;28;20542;-88
2024/01/12 16:51:28;;;;;;;59.17;26.93;;;;;;;;;;5002741;28;20578;-88
2024/01/12 16:54:35;;;;;;;65.73;29.80;;;;;;;;;;4980961;28;20636;-88
2024/01/12 16:57:41;;;;;;;65.37;30.93;;;;;;;;;;5003409;28;20599;-87
2024/01/12 17:00:45;;;;;;;69.63;33.43;;;;;;;;;;4992585;28;20554;-89
2024/01/12 17:03:51;;;;;;;54.27;26.03;;;;;;;;;;4992151;28;20542;-88
2024/01/12 17:11:09;;;;;;;53.70;25.00;;;;;;;;;;5003578;28;20880;-89
2024/01/12 17:14:14;;;;;;;61.90;28.23;;;;;;;;;;4980630;28;20622;-89
2024/01/12 17:17:18;;;;;;;55.87;26.53;;;;;;;;;;4991286;28;20594;-88
2024/01/12 17:20:23;;;;;;;69.20;29.37;;;;;;;;;;4980849;28;20553;-90
2024/01/12 17:23:29;;;;;;;70.23;29.97;;;;;;;;;;4991320;28;21074;-90
2024/01/12 17:26:34;;;;;;;71.90;30.67;;;;;;;;;;4991104;28;20549;-89
2024/01/12 17:29:39;;;;;;;76.93;31.63;;;;;;;;;;4991124;28;20573;-89
2024/01/12 17:32:44;;;;;;;80.47;38.10;;;;;;;;;;4980990;28;20610;-89
2024/01/12 17:35:48;;;;;;;78.43;31.27;;;;;;;;;;5003227;28;20694;-88
2024/01/12 17:38:53;;;;;;;68.57;30.77;;;;;;;;;;5002492;28;20564;-89
2024/01/12 17:41:58;;;;;;;70.37;29.43;;;;;;;;;;5055851;28;20559;-89
2024/01/12 17:45:04;;;;;;;65.63;27.87;;;;;;;;;;5055632;28;20629;-89
2024/01/12 17:48:09;;;;;;;75.17;29.77;;;;;;;;;;5069800;28;20539;-89
2024/01/12 17:51:14;;;;;;;71.43;29.63;;;;;;;;;;5058331;28;20546;-89
2024/01/12 17:54:21;;;;;;;74.23;30.80;;;;;;;;;;5081184;28;20624;-89
2024/01/12 17:57:26;;;;;;;65.50;28.17;;;;;;;;;;5058002;28;20582;-89
2024/01/12 18:00:31;;;;;;;66.50;25.37;;;;;;;;;;5080878;28;20551;-88